AVIATION WEATHER REPORT

                                                                                                   GENERAL AVIATION FORECAST ST. MAARTEN

 

DATE ISSUED: June 26,  2017        VALID TIME: 12:00 -24:00Z

 

AREA OF COVERAGE: TNCM TMA (Bounded by 18.25N 063.39W, 18.25N 062.51W, 17.47N 062.22W, 17.26N 062.53W, 17.36N 063.39W AND 18.25N 063.39W)

LEVELS OF COVERAGE: MSL TO FL100

 
 

SIG. WX: -SHRA, POSS. TS

SIG. CLDS: FEW CB 1600-1900FT
BKN TCU BASE 1700-2200 FT

SFC. VIS: 10 KM

 
FCST WNDS/TEMP ALOFT: 26/18:00Z

 

LEVEL

WINDS

TEMP

0500 FT

090/20KT

+27

1000 FT

090/20KT

+25

2000 FT

090/20KT

+22

3000 FT

090/20KT

+20

FL050

090/15KT

+18

FL080

100/10KT

+14

FL100

100/10KT

+09

 

 

FZL: ABOVE FL100

SPECIAL FEATURES: NONE

 

TAF:

 

TNCM 261135Z 2612/2712 07012KT P6SM SCT016 FM261400 09013KT P6SM SCT018 SCT250 FM262000 08008KT P6SM SCT018 BKN080

 

FORECASTER: GORDON

 

Meteorological Department St. Maarten

Airport Rd. # 69, Simpson Bay (1-721) 545-2024 or (1-721) 545-4226 Fax: (1-721) 545-2998
E-Mail: This email address is being protected from spambots. You need JavaScript enabled to view it.

 

 

 

 

TAF TAPA 261118Z 2612/2712 08012KT 9999 SCT022

TAF TFFR 261100Z 2612/2712 08012KT 9999 SCT030 BECMG 2700/2702 VRB02KT

TJSJ 261135Z 2612/2712 09008KT P6SM SCT030 SCT250 FM261400 07016KT P6SM FEW030 BKN250
FM262300 09010KT P6SM SCT022

TAF TXKF 261131Z 2612/2712 22008KT 9999 FEW015 SCT065 BKN300 PROB30 TEMPO 2703/2712 17010KT 4800 SHRA BKN014CB

TAF LPAZ 261100Z 2612/2718 27010KT 9999 SCT015 SCT030 BECMG 2612/2615 30012KT
PROB30 TEMPO 2700/2710 5000 DZ BR SCT002 BKN005

TAF LPLA 261101Z 2612/2712 30012KT 9999 FEW020 SCT040 PROB40 TEMPO 2703/2708 SCT010 BKN020

TAF LPPT 261100Z 2612/2718 VRB03KT 9999 FEW020 BKN030 BECMG 2612/2615 32013KT SCT035
BECMG 2621/2624 30007KT SCT012
PROB30 TEMPO 2702/2708 BKN010

BECMG 2710/2712 30013KT FEW015 SCT030

17.36N 63.40W and 18.30N 63.40W).
Levels of Coverage: MSL to FL100.
SIG WX: ISOL SHRA.
SIG CLDS: FEW TCU 1000 - 1500FT AND TOPS ABV FL100.
SCT/ BKN LYR SC/AC 2000 - 3500FT AND TOPS ABV FL100.
SFC VIS: 10+ KM, 3 - 7 KM IN SHRA.
FCST WNDS/TEMP ALOFT: 14/ 18:00Z
0500 FT.. 200/10KT +26 FL050.....220/10KT +16
1000 FT.. 200/10KT +24 FL080.....220/05KT +11
2000 FT.. 210/15KT +22 FL100.....200/10KT +08
3000 FT.. 210/15KT +19
FZL: ABV FL100.
SPECIAL FEATURES:
NONE.
TAFS:
TAF TNCM 141200Z 1412/1512 14012KT P6SM VCSH BKN018 BKN035
FM141800 21008KT P6SM VCSH SCT022 SCT050=
Forecaster: DJF.

Save

Save

Save

Save

Save

Save

Save

Save

Save

Save

Save

Save

Save

Save

Save

Save

Save

Save

Save

Save

Save

Save

Save

Save

Save

Save

Save

Save

Save

Save

Save

Save

Save

Save

Save

Save

Save

Save

Save

Save

Save

Save

Save

Save

Save

Save

Save

Save

Save

Save

Save

Save

Save

Save

Save

Save

Save

Save

Save

Save

Save

Save

Save

Save

Save

Save

Save

Save

Save

Save

Save

Save

Save

Save

Save

Save

Save

Save

Save

Save

Save

Save

Save

Save

Save

Save

Save

Save

Save

Save

Save

Save

Save

Save

Save

Save

Save

Save

Save

Save

Save

Save

Save

Save

Save

Save

Save

Save

Save

Save

Save

Save

Save

Save

Save

Save

Save

Save

Save

Save

Save

Save

Save

Save

Save

Save

Save

Save

Save

Save

Save

Save

Save

Save

Save

Save

Save

Save

Save

Download attachments:
Rate this item
(0 votes)

Add comment

Security code
Refresh

International News

Go to top